Austin, TX (78741)

12:41 AM CST on February 10, 2016 (GMT -0600)
Travis Heights | | Change Station
CLOSE
Current Station
Personal Weather Station
Location: Austin, TX
Elevation: 548 ft
Nearby Weather Stations

Elev 548 ft 30.25 °N, 97.75 °W | Updated 7 seconds ago

Clear
Clear
48.7 °F
Feels Like 49 °F
N
0.0
Wind Variable Wind from North
Gusts 0.0 mph

Today
High -- | Low -- °F
--% Chance of Precip.
Yesterday
High -- | Low -- °F
Precip. -- in
Pressure 30.33 in
Visibility 10.0 miles
Clouds Clear
Windchill 49 °F
Dew Point 37 °F
Humidity 63%
Rainfall 0.00 in
Snow Depth Not available.
7:15 AM 6:15 PM
Waxing Crescent, 4% visible
METAR KAUS 100553Z 35006KT 10SM CLR 04/00 A3033 RMK AO2 SLP271 T00440000 10206 20044 402280006 53018
Pressure 30.33 in
Visibility 10.0 miles
Clouds Clear
Windchill 49 °F
Dew Point 37 °F
Humidity 63%
Rainfall 0.00 in
Snow Depth Not available.
7:15 AM 6:15 PM
Waxing Crescent, 4% visible
METAR KAUS 100553Z 35006KT 10SM CLR 04/00 A3033 RMK AO2 SLP271 T00440000 10206 20044 402280006 53018

10-Day Weather Forecast

Almanac

Astronomy

Feb. 10, 2016 Rise Set
Actual Time
Civil Twilight
Nautical Twilight
Astronomical Twilight
Moon
Length of Visible Light
Length of Day
Tomorrow will be .
, % of the Moon is Illuminated

Today's Extremes

State Highs State Lows

Community

WunderPhotos

Upload Photos

1,891,826 photos uploaded!

WunderBlog® & News

Nearby

Air Quality

  Air Quality AQ Index Pollutant
Not available.

Snow Depth

Station Depth Elevation

Earthquake Activity

City Distance Mag. Time & Date
Minimum magnitude displayed is 2.5.

Coastal Water Temperatures

Place Temperature

Stations

Nearby Weather Stations

Station Location Temp. Windchill Dew Point Humidity Wind Precip. Elev Updated Type
                   

Watches & Warnings

There are currently no watches in effect.